sensor_id;sensor_type;location;lat;lon;timestamp;pressure;altitude;pressure_sealevel;temperature;humidity
34081;BME280;20358;50.272;19.026;2023-04-03T00:00:58;98655.75;;;-0.25;65.73
34081;BME280;20358;50.272;19.026;2023-04-03T00:04:06;98653.97;;;-0.23;66.12
34081;BME280;20358;50.272;19.026;2023-04-03T00:07:12;98663.19;;;-0.12;66.34
34081;BME280;20358;50.272;19.026;2023-04-03T00:10:21;98659.06;;;-0.20;66.05
34081;BME280;20358;50.272;19.026;2023-04-03T00:13:27;98665.97;;;-0.19;65.34
34081;BME280;20358;50.272;19.026;2023-04-03T00:16:34;98659.78;;;-0.14;66.11
34081;BME280;20358;50.272;19.026;2023-04-03T00:19:40;98655.50;;;-0.16;66.02
34081;BME280;20358;50.272;19.026;2023-04-03T00:22:47;98660.44;;;-0.07;65.69
34081;BME280;20358;50.272;19.026;2023-04-03T00:25:55;98658.25;;;-0.21;65.74
34081;BME280;20358;50.272;19.026;2023-04-03T00:29:02;98668.63;;;-0.21;66.01
34081;BME280;20358;50.272;19.026;2023-04-03T00:32:08;98650.16;;;-0.44;66.36
34081;BME280;20358;50.272;19.026;2023-04-03T00:35:16;98660.38;;;-0.36;66.68
34081;BME280;20358;50.272;19.026;2023-04-03T00:38:22;98666.38;;;-0.34;66.52
34081;BME280;20358;50.272;19.026;2023-04-03T00:41:31;98659.66;;;-0.41;66.61
34081;BME280;20358;50.272;19.026;2023-04-03T00:48:39;98663.53;;;-0.25;66.90
34081;BME280;20358;50.272;19.026;2023-04-03T00:51:48;98667.84;;;-0.24;66.35
34081;BME280;20358;50.272;19.026;2023-04-03T00:54:59;98663.59;;;-0.28;67.02
34081;BME280;20358;50.272;19.026;2023-04-03T00:58:12;98675.69;;;-0.27;67.28
34081;BME280;20358;50.272;19.026;2023-04-03T01:01:24;98671.31;;;-0.25;67.23
34081;BME280;20358;50.272;19.026;2023-04-03T01:04:37;98674.75;;;-0.23;66.86
34081;BME280;20358;50.272;19.026;2023-04-03T01:07:47;98667.91;;;-0.27;67.25
34081;BME280;20358;50.272;19.026;2023-04-03T01:10:56;98666.91;;;-0.22;67.07
34081;BME280;20358;50.272;19.026;2023-04-03T01:14:06;98680.84;;;-0.26;66.51
34081;BME280;20358;50.272;19.026;2023-04-03T01:17:27;98676.84;;;-0.37;66.81
34081;BME280;20358;50.272;19.026;2023-04-03T01:24:47;98673.94;;;-0.62;66.73
34081;BME280;20358;50.272;19.026;2023-04-03T01:27:54;98648.44;;;-0.79;67.39
34081;BME280;20358;50.272;19.026;2023-04-03T01:31:14;98678.88;;;-0.51;66.77
34081;BME280;20358;50.272;19.026;2023-04-03T01:34:32;98692.69;;;-0.49;66.55
34081;BME280;20358;50.272;19.026;2023-04-03T01:37:39;98685.84;;;-0.53;66.61
34081;BME280;20358;50.272;19.026;2023-04-03T01:40:46;98692.75;;;-0.52;66.59
34081;BME280;20358;50.272;19.026;2023-04-03T01:43:52;98700.72;;;-0.60;66.98
34081;BME280;20358;50.272;19.026;2023-04-03T01:46:58;98723.16;;;-0.59;66.89
34081;BME280;20358;50.272;19.026;2023-04-03T01:50:08;98702.41;;;-0.59;66.73
34081;BME280;20358;50.272;19.026;2023-04-03T01:53:15;98699.78;;;-0.57;66.09
34081;BME280;20358;50.272;19.026;2023-04-03T01:56:22;98700.84;;;-0.66;66.42
34081;BME280;20358;50.272;19.026;2023-04-03T01:59:30;98698.22;;;-0.65;65.97
34081;BME280;20358;50.272;19.026;2023-04-03T02:02:37;98711.78;;;-0.53;66.70
34081;BME280;20358;50.272;19.026;2023-04-03T02:05:46;98717.16;;;-0.59;65.11
34081;BME280;20358;50.272;19.026;2023-04-03T02:08:52;98703.81;;;-0.81;65.30
34081;BME280;20358;50.272;19.026;2023-04-03T02:11:59;98710.81;;;-0.85;65.71
34081;BME280;20358;50.272;19.026;2023-04-03T02:15:07;98701.34;;;-0.86;65.63
34081;BME280;20358;50.272;19.026;2023-04-03T02:18:15;98710.00;;;-0.87;65.36
34081;BME280;20358;50.272;19.026;2023-04-03T02:21:24;98703.94;;;-0.86;65.08
34081;BME280;20358;50.272;19.026;2023-04-03T02:24:31;98730.91;;;-0.94;65.04
34081;BME280;20358;50.272;19.026;2023-04-03T02:27:38;98709.38;;;-0.98;65.27
34081;BME280;20358;50.272;19.026;2023-04-03T02:30:46;98721.41;;;-0.94;65.51
34081;BME280;20358;50.272;19.026;2023-04-03T02:33:52;98716.34;;;-1.00;66.23
34081;BME280;20358;50.272;19.026;2023-04-03T02:37:02;98722.41;;;-1.01;66.01
34081;BME280;20358;50.272;19.026;2023-04-03T02:40:09;98717.91;;;-0.93;65.86
34081;BME280;20358;50.272;19.026;2023-04-03T02:43:17;98714.56;;;-0.98;66.10
34081;BME280;20358;50.272;19.026;2023-04-03T02:46:23;98716.91;;;-0.86;66.30
34081;BME280;20358;50.272;19.026;2023-04-03T02:49:31;98710.88;;;-0.88;66.02
34081;BME280;20358;50.272;19.026;2023-04-03T02:52:40;98718.81;;;-0.94;66.46
34081;BME280;20358;50.272;19.026;2023-04-03T02:55:47;98708.50;;;-0.97;66.42
34081;BME280;20358;50.272;19.026;2023-04-03T02:58:53;98718.63;;;-0.86;65.98
34081;BME280;20358;50.272;19.026;2023-04-03T03:02:00;98726.28;;;-0.82;65.45
34081;BME280;20358;50.272;19.026;2023-04-03T03:05:08;98721.34;;;-0.92;65.31
34081;BME280;20358;50.272;19.026;2023-04-03T03:08:17;98709.13;;;-0.86;65.75
34081;BME280;20358;50.272;19.026;2023-04-03T03:11:23;98725.78;;;-0.97;64.65
34081;BME280;20358;50.272;19.026;2023-04-03T03:14:30;98726.66;;;-0.97;64.45
34081;BME280;20358;50.272;19.026;2023-04-03T03:17:36;98733.03;;;-1.11;63.94
34081;BME280;20358;50.272;19.026;2023-04-03T03:20:43;98717.38;;;-1.08;64.04
34081;BME280;20358;50.272;19.026;2023-04-03T03:23:52;98739.56;;;-0.95;64.01
34081;BME280;20358;50.272;19.026;2023-04-03T03:26:59;98723.31;;;-1.02;64.22
34081;BME280;20358;50.272;19.026;2023-04-03T03:30:06;98725.72;;;-1.34;63.53
34081;BME280;20358;50.272;19.026;2023-04-03T03:33:13;98735.09;;;-1.27;63.49
34081;BME280;20358;50.272;19.026;2023-04-03T03:36:19;98740.22;;;-1.25;63.39
34081;BME280;20358;50.272;19.026;2023-04-03T03:39:29;98748.44;;;-1.45;63.07
34081;BME280;20358;50.272;19.026;2023-04-03T03:42:35;98754.38;;;-1.42;63.75
34081;BME280;20358;50.272;19.026;2023-04-03T03:45:42;98758.59;;;-1.36;63.57
34081;BME280;20358;50.272;19.026;2023-04-03T03:48:49;98745.84;;;-1.47;63.27
34081;BME280;20358;50.272;19.026;2023-04-03T03:51:56;98744.13;;;-1.46;63.72
34081;BME280;20358;50.272;19.026;2023-04-03T03:55:05;98745.13;;;-1.53;63.91
34081;BME280;20358;50.272;19.026;2023-04-03T03:58:12;98759.66;;;-1.46;63.56
34081;BME280;20358;50.272;19.026;2023-04-03T04:01:18;98763.06;;;-1.44;63.27
34081;BME280;20358;50.272;19.026;2023-04-03T04:04:26;98765.03;;;-1.57;63.35
34081;BME280;20358;50.272;19.026;2023-04-03T04:07:31;98777.28;;;-1.65;63.50
34081;BME280;20358;50.272;19.026;2023-04-03T04:10:41;98761.75;;;-1.65;63.66
34081;BME280;20358;50.272;19.026;2023-04-03T04:13:49;98767.06;;;-1.72;63.38
34081;BME280;20358;50.272;19.026;2023-04-03T04:17:00;98775.81;;;-1.78;63.73
34081;BME280;20358;50.272;19.026;2023-04-03T04:20:08;98760.25;;;-1.78;63.80
34081;BME280;20358;50.272;19.026;2023-04-03T04:23:16;98772.53;;;-1.87;63.92
34081;BME280;20358;50.272;19.026;2023-04-03T04:26:27;98771.59;;;-1.83;64.00
34081;BME280;20358;50.272;19.026;2023-04-03T04:29:34;98777.56;;;-1.80;64.38
34081;BME280;20358;50.272;19.026;2023-04-03T04:32:42;98788.16;;;-1.92;64.15
34081;BME280;20358;50.272;19.026;2023-04-03T04:35:50;98778.81;;;-2.01;63.93
34081;BME280;20358;50.272;19.026;2023-04-03T04:38:56;98742.13;;;-2.24;64.32
34081;BME280;20358;50.272;19.026;2023-04-03T04:42:06;98794.34;;;-2.01;63.63
34081;BME280;20358;50.272;19.026;2023-04-03T04:45:19;98800.50;;;-2.08;63.63
34081;BME280;20358;50.272;19.026;2023-04-03T04:48:26;98805.72;;;-2.12;63.57
34081;BME280;20358;50.272;19.026;2023-04-03T04:51:34;98797.91;;;-2.08;65.16
34081;BME280;20358;50.272;19.026;2023-04-03T04:54:56;98791.19;;;-2.18;63.95
34081;BME280;20358;50.272;19.026;2023-04-03T04:58:05;98811.66;;;-2.06;64.09
34081;BME280;20358;50.272;19.026;2023-04-03T05:01:12;98810.13;;;-2.16;64.42
34081;BME280;20358;50.272;19.026;2023-04-03T05:04:29;98818.66;;;-2.11;64.08
34081;BME280;20358;50.272;19.026;2023-04-03T05:07:43;98828.88;;;-2.05;63.87
34081;BME280;20358;50.272;19.026;2023-04-03T05:10:55;98819.38;;;-2.03;63.46
34081;BME280;20358;50.272;19.026;2023-04-03T05:14:06;98816.19;;;-2.18;63.25
34081;BME280;20358;50.272;19.026;2023-04-03T05:17:12;98827.56;;;-2.30;62.54
34081;BME280;20358;50.272;19.026;2023-04-03T05:20:24;98834.28;;;-2.17;63.08
34081;BME280;20358;50.272;19.026;2023-04-03T05:23:30;98829.06;;;-2.14;62.22
34081;BME280;20358;50.272;19.026;2023-04-03T05:26:38;98822.22;;;-2.18;62.48
34081;BME280;20358;50.272;19.026;2023-04-03T05:29:48;98830.78;;;-2.13;62.03
34081;BME280;20358;50.272;19.026;2023-04-03T05:32:58;98841.44;;;-2.34;63.10
34081;BME280;20358;50.272;19.026;2023-04-03T05:36:27;98849.25;;;-2.37;62.67
34081;BME280;20358;50.272;19.026;2023-04-03T05:39:40;98830.44;;;-2.46;62.70
34081;BME280;20358;50.272;19.026;2023-04-03T05:42:46;98841.53;;;-2.40;63.47
34081;BME280;20358;50.272;19.026;2023-04-03T05:45:58;98844.94;;;-2.38;62.36
34081;BME280;20358;50.272;19.026;2023-04-03T05:49:04;98850.25;;;-2.47;62.69
34081;BME280;20358;50.272;19.026;2023-04-03T05:52:20;98856.31;;;-2.48;62.71
34081;BME280;20358;50.272;19.026;2023-04-03T05:55:29;98846.78;;;-2.46;63.01
34081;BME280;20358;50.272;19.026;2023-04-03T05:58:35;98854.34;;;-2.31;62.36
34081;BME280;20358;50.272;19.026;2023-04-03T06:01:44;98858.72;;;-2.36;61.82
34081;BME280;20358;50.272;19.026;2023-04-03T06:04:51;98847.38;;;-2.27;61.14
34081;BME280;20358;50.272;19.026;2023-04-03T06:07:58;98851.63;;;-2.25;61.42
34081;BME280;20358;50.272;19.026;2023-04-03T06:11:06;98860.97;;;-2.15;61.29
34081;BME280;20358;50.272;19.026;2023-04-03T06:14:12;98868.66;;;-2.09;60.87
34081;BME280;20358;50.272;19.026;2023-04-03T06:17:27;98868.69;;;-2.12;60.42
34081;BME280;20358;50.272;19.026;2023-04-03T06:20:34;98864.25;;;-2.04;60.41
34081;BME280;20358;50.272;19.026;2023-04-03T06:23:41;98878.66;;;-1.87;60.88
34081;BME280;20358;50.272;19.026;2023-04-03T06:26:47;98887.28;;;-1.88;60.11
34081;BME280;20358;50.272;19.026;2023-04-03T06:29:54;98885.47;;;-1.82;59.45
34081;BME280;20358;50.272;19.026;2023-04-03T06:33:03;98877.59;;;-1.74;60.49
34081;BME280;20358;50.272;19.026;2023-04-03T06:36:11;98886.09;;;-1.68;59.52
34081;BME280;20358;50.272;19.026;2023-04-03T06:39:19;98886.91;;;-1.64;59.57
34081;BME280;20358;50.272;19.026;2023-04-03T06:42:27;98887.13;;;-1.76;59.39
34081;BME280;20358;50.272;19.026;2023-04-03T06:45:43;98895.78;;;-1.79;58.81
34081;BME280;20358;50.272;19.026;2023-04-03T06:48:52;98881.38;;;-1.97;59.77
34081;BME280;20358;50.272;19.026;2023-04-03T06:51:58;98899.53;;;-1.98;59.09
34081;BME280;20358;50.272;19.026;2023-04-03T06:55:05;98901.13;;;-1.89;59.02
34081;BME280;20358;50.272;19.026;2023-04-03T06:58:12;98913.47;;;-2.05;59.45
34081;BME280;20358;50.272;19.026;2023-04-03T07:01:25;98917.69;;;-2.01;58.81
34081;BME280;20358;50.272;19.026;2023-04-03T07:04:34;98914.59;;;-2.24;59.46
34081;BME280;20358;50.272;19.026;2023-04-03T07:07:41;98926.63;;;-2.20;59.22
34081;BME280;20358;50.272;19.026;2023-04-03T07:10:47;98928.28;;;-2.16;60.81
34081;BME280;20358;50.272;19.026;2023-04-03T07:13:54;98945.19;;;-1.93;59.21
34081;BME280;20358;50.272;19.026;2023-04-03T07:16:59;98948.66;;;-1.95;58.34
34081;BME280;20358;50.272;19.026;2023-04-03T07:20:10;98928.41;;;-1.70;58.70
34081;BME280;20358;50.272;19.026;2023-04-03T07:23:17;98936.78;;;-1.53;57.39
34081;BME280;20358;50.272;19.026;2023-04-03T07:26:24;98939.38;;;-1.55;57.17
34081;BME280;20358;50.272;19.026;2023-04-03T07:29:30;98936.84;;;-1.56;57.35
34081;BME280;20358;50.272;19.026;2023-04-03T07:32:36;98964.50;;;-1.58;56.39
34081;BME280;20358;50.272;19.026;2023-04-03T07:35:46;98940.75;;;-1.84;57.04
34081;BME280;20358;50.272;19.026;2023-04-03T07:38:53;98962.50;;;-1.98;56.40
34081;BME280;20358;50.272;19.026;2023-04-03T07:41:58;98961.53;;;-1.91;56.17
34081;BME280;20358;50.272;19.026;2023-04-03T07:45:12;98945.25;;;-1.99;55.64
34081;BME280;20358;50.272;19.026;2023-04-03T07:48:21;98943.50;;;-1.95;56.49
34081;BME280;20358;50.272;19.026;2023-04-03T07:51:31;98945.63;;;-1.66;56.25
34081;BME280;20358;50.272;19.026;2023-04-03T07:54:37;98936.03;;;-1.60;55.27
34081;BME280;20358;50.272;19.026;2023-04-03T07:57:44;98949.44;;;-1.35;54.94
34081;BME280;20358;50.272;19.026;2023-04-03T08:00:52;98945.13;;;-1.36;53.84
34081;BME280;20358;50.272;19.026;2023-04-03T08:04:00;98946.66;;;-1.26;54.12
34081;BME280;20358;50.272;19.026;2023-04-03T08:07:08;98952.59;;;-1.19;52.96
34081;BME280;20358;50.272;19.026;2023-04-03T08:10:15;98957.25;;;-1.38;52.20
34081;BME280;20358;50.272;19.026;2023-04-03T08:13:22;98950.34;;;-1.39;51.79
34081;BME280;20358;50.272;19.026;2023-04-03T08:16:28;98951.16;;;-1.36;52.22
34081;BME280;20358;50.272;19.026;2023-04-03T08:19:34;98948.84;;;-1.52;51.38
34081;BME280;20358;50.272;19.026;2023-04-03T08:22:44;98947.06;;;-1.50;51.49
34081;BME280;20358;50.272;19.026;2023-04-03T08:25:50;98959.25;;;-1.55;50.58
34081;BME280;20358;50.272;19.026;2023-04-03T08:28:57;98970.75;;;-1.73;51.09
34081;BME280;20358;50.272;19.026;2023-04-03T08:32:03;98956.00;;;-1.66;50.70
34081;BME280;20358;50.272;19.026;2023-04-03T08:35:10;98956.00;;;-1.66;51.05
34081;BME280;20358;50.272;19.026;2023-04-03T08:38:19;98974.91;;;-1.61;50.64
34081;BME280;20358;50.272;19.026;2023-04-03T08:41:33;98968.03;;;-1.65;49.98
34081;BME280;20358;50.272;19.026;2023-04-03T08:44:47;98969.72;;;-1.61;48.95
34081;BME280;20358;50.272;19.026;2023-04-03T08:48:05;98983.44;;;-1.56;48.63
34081;BME280;20358;50.272;19.026;2023-04-03T08:51:15;98973.53;;;-1.86;48.24
34081;BME280;20358;50.272;19.026;2023-04-03T08:54:32;98961.47;;;-1.84;47.87
34081;BME280;20358;50.272;19.026;2023-04-03T08:57:43;98959.69;;;-1.82;48.67
34081;BME280;20358;50.272;19.026;2023-04-03T09:00:57;98973.25;;;-1.68;47.94
34081;BME280;20358;50.272;19.026;2023-04-03T09:04:12;98968.16;;;-1.71;47.76
34081;BME280;20358;50.272;19.026;2023-04-03T09:07:32;98985.34;;;-1.67;47.08
34081;BME280;20358;50.272;19.026;2023-04-03T09:10:47;98987.19;;;-1.75;46.21
34081;BME280;20358;50.272;19.026;2023-04-03T09:14:00;98964.44;;;-1.55;46.62
34081;BME280;20358;50.272;19.026;2023-04-03T09:17:21;99000.75;;;-1.58;45.20
34081;BME280;20358;50.272;19.026;2023-04-03T09:20:46;98973.97;;;-1.56;45.34
34081;BME280;20358;50.272;19.026;2023-04-03T09:24:01;98972.94;;;-1.47;45.86
34081;BME280;20358;50.272;19.026;2023-04-03T09:27:15;98973.66;;;-1.38;45.06
34081;BME280;20358;50.272;19.026;2023-04-03T09:30:22;98974.13;;;-1.16;44.02
34081;BME280;20358;50.272;19.026;2023-04-03T09:33:30;99009.63;;;-1.19;43.37
34081;BME280;20358;50.272;19.026;2023-04-03T09:36:42;98990.94;;;-1.38;42.04
34081;BME280;20358;50.272;19.026;2023-04-03T09:39:52;98984.94;;;-1.40;42.08
34081;BME280;20358;50.272;19.026;2023-04-03T09:43:08;98983.72;;;-1.19;42.84
34081;BME280;20358;50.272;19.026;2023-04-03T09:46:31;98997.13;;;-0.98;43.24
34081;BME280;20358;50.272;19.026;2023-04-03T09:49:40;98992.88;;;-1.02;43.62
34081;BME280;20358;50.272;19.026;2023-04-03T09:52:48;98997.75;;;-0.84;44.33
34081;BME280;20358;50.272;19.026;2023-04-03T09:55:55;98983.66;;;-0.71;45.05
34081;BME280;20358;50.272;19.026;2023-04-03T09:59:16;99013.78;;;-0.63;44.47
34081;BME280;20358;50.272;19.026;2023-04-03T10:02:35;98991.19;;;-0.58;45.29
34081;BME280;20358;50.272;19.026;2023-04-03T10:05:42;98987.28;;;-0.35;44.13
34081;BME280;20358;50.272;19.026;2023-04-03T10:08:59;99011.03;;;-0.54;40.71
34081;BME280;20358;50.272;19.026;2023-04-03T10:12:08;99010.88;;;-0.48;39.95
34081;BME280;20358;50.272;19.026;2023-04-03T10:15:19;99027.34;;;-0.49;39.98
34081;BME280;20358;50.272;19.026;2023-04-03T10:18:32;99014.34;;;-0.48;39.88
34081;BME280;20358;50.272;19.026;2023-04-03T10:21:50;99003.47;;;-0.22;39.75
34081;BME280;20358;50.272;19.026;2023-04-03T10:25:12;99008.59;;;-0.19;40.12
34081;BME280;20358;50.272;19.026;2023-04-03T10:28:30;99018.31;;;-0.29;40.90
34081;BME280;20358;50.272;19.026;2023-04-03T10:31:56;98997.41;;;-0.21;41.40
34081;BME280;20358;50.272;19.026;2023-04-03T10:35:18;98994.41;;;-0.03;42.06
34081;BME280;20358;50.272;19.026;2023-04-03T10:38:42;98985.47;;;0.10;42.27
34081;BME280;20358;50.272;19.026;2023-04-03T10:42:03;98939.59;;;-0.29;40.70
34081;BME280;20358;50.272;19.026;2023-04-03T10:45:26;98994.06;;;0.12;40.88
34081;BME280;20358;50.272;19.026;2023-04-03T10:48:55;98982.66;;;0.19;41.23
34081;BME280;20358;50.272;19.026;2023-04-03T10:52:22;98949.81;;;0.17;40.85
34081;BME280;20358;50.272;19.026;2023-04-03T10:55:41;98973.88;;;0.25;41.08
34081;BME280;20358;50.272;19.026;2023-04-03T10:59:06;98958.84;;;0.37;42.25
34081;BME280;20358;50.272;19.026;2023-04-03T11:02:24;98971.28;;;-0.15;42.33
34081;BME280;20358;50.272;19.026;2023-04-03T11:05:42;98974.97;;;0.15;39.42
34081;BME280;20358;50.272;19.026;2023-04-03T11:08:58;98962.41;;;0.33;38.44
34081;BME280;20358;50.272;19.026;2023-04-03T11:12:14;98956.78;;;0.51;38.95
34081;BME280;20358;50.272;19.026;2023-04-03T11:15:29;98977.63;;;0.48;39.54
34081;BME280;20358;50.272;19.026;2023-04-03T11:18:44;98959.94;;;0.63;38.82
34081;BME280;20358;50.272;19.026;2023-04-03T11:22:04;98968.72;;;0.58;39.75
34081;BME280;20358;50.272;19.026;2023-04-03T11:25:20;98986.22;;;0.50;38.26
34081;BME280;20358;50.272;19.026;2023-04-03T11:28:28;98962.97;;;0.46;39.33
34081;BME280;20358;50.272;19.026;2023-04-03T11:32:11;98984.38;;;0.55;39.23
34081;BME280;20358;50.272;19.026;2023-04-03T11:35:35;98967.38;;;0.42;39.14
34081;BME280;20358;50.272;19.026;2023-04-03T11:38:49;98961.22;;;0.46;39.43
34081;BME280;20358;50.272;19.026;2023-04-03T11:42:15;98972.78;;;0.69;40.37
34081;BME280;20358;50.272;19.026;2023-04-03T11:45:35;98949.31;;;0.72;39.23
34081;BME280;20358;50.272;19.026;2023-04-03T11:48:51;98967.44;;;0.75;38.01
34081;BME280;20358;50.272;19.026;2023-04-03T11:51:59;98955.03;;;0.86;39.84
34081;BME280;20358;50.272;19.026;2023-04-03T11:55:44;98935.97;;;0.85;39.32
34081;BME280;20358;50.272;19.026;2023-04-03T11:59:22;98937.97;;;1.08;38.03
34081;BME280;20358;50.272;19.026;2023-04-03T12:02:37;98907.75;;;1.02;38.26
34081;BME280;20358;50.272;19.026;2023-04-03T12:05:58;98951.69;;;1.45;38.69
34081;BME280;20358;50.272;19.026;2023-04-03T12:10:18;98941.03;;;1.53;38.42
34081;BME280;20358;50.272;19.026;2023-04-03T12:13:35;98951.22;;;1.60;38.20
34081;BME280;20358;50.272;19.026;2023-04-03T12:16:44;98943.22;;;1.66;36.38
34081;BME280;20358;50.272;19.026;2023-04-03T12:19:55;98927.97;;;1.83;36.23
34081;BME280;20358;50.272;19.026;2023-04-03T12:23:08;98938.88;;;1.96;37.70
34081;BME280;20358;50.272;19.026;2023-04-03T12:26:38;98951.34;;;2.14;38.28
34081;BME280;20358;50.272;19.026;2023-04-03T12:29:58;98943.59;;;2.13;38.30
34081;BME280;20358;50.272;19.026;2023-04-03T12:33:23;98919.56;;;2.03;38.19
34081;BME280;20358;50.272;19.026;2023-04-03T12:36:48;98914.78;;;1.90;39.50
34081;BME280;20358;50.272;19.026;2023-04-03T12:40:09;98929.53;;;1.89;40.06
34081;BME280;20358;50.272;19.026;2023-04-03T12:43:42;98936.41;;;1.62;38.89
34081;BME280;20358;50.272;19.026;2023-04-03T12:47:02;98936.94;;;1.44;38.96
34081;BME280;20358;50.272;19.026;2023-04-03T12:50:28;98936.41;;;1.62;39.75
34081;BME280;20358;50.272;19.026;2023-04-03T12:53:37;98929.16;;;1.73;39.75
34081;BME280;20358;50.272;19.026;2023-04-03T12:56:45;98914.00;;;1.58;38.46
34081;BME280;20358;50.272;19.026;2023-04-03T12:59:55;98945.47;;;1.78;37.67
34081;BME280;20358;50.272;19.026;2023-04-03T13:03:02;98928.13;;;1.79;38.58
34081;BME280;20358;50.272;19.026;2023-04-03T13:06:18;98931.22;;;1.62;36.35
34081;BME280;20358;50.272;19.026;2023-04-03T13:09:27;98935.63;;;1.59;36.87
34081;BME280;20358;50.272;19.026;2023-04-03T13:12:45;98927.41;;;1.43;36.81
34081;BME280;20358;50.272;19.026;2023-04-03T13:15:56;98910.91;;;1.44;38.12
34081;BME280;20358;50.272;19.026;2023-04-03T13:19:03;98917.31;;;1.63;38.05
34081;BME280;20358;50.272;19.026;2023-04-03T13:22:26;98919.69;;;1.69;37.66
34081;BME280;20358;50.272;19.026;2023-04-03T13:25:42;98921.84;;;1.84;36.73
34081;BME280;20358;50.272;19.026;2023-04-03T13:28:50;98934.94;;;1.83;33.15
34081;BME280;20358;50.272;19.026;2023-04-03T13:32:02;98918.19;;;1.92;34.01
34081;BME280;20358;50.272;19.026;2023-04-03T13:35:26;98916.88;;;2.06;34.63
34081;BME280;20358;50.272;19.026;2023-04-03T13:38:35;98917.63;;;2.10;36.56
34081;BME280;20358;50.272;19.026;2023-04-03T13:41:47;98930.28;;;2.22;36.09
34081;BME280;20358;50.272;19.026;2023-04-03T13:45:17;98921.88;;;2.40;36.83
34081;BME280;20358;50.272;19.026;2023-04-03T13:48:35;98943.94;;;2.56;36.84
34081;BME280;20358;50.272;19.026;2023-04-03T13:51:48;98939.84;;;2.48;37.74
34081;BME280;20358;50.272;19.026;2023-04-03T13:55:19;98940.63;;;2.51;38.04
34081;BME280;20358;50.272;19.026;2023-04-03T13:58:30;98927.06;;;2.40;36.44
34081;BME280;20358;50.272;19.026;2023-04-03T14:01:43;98945.06;;;2.48;36.50
34081;BME280;20358;50.272;19.026;2023-04-03T14:04:58;98932.47;;;2.34;36.33
34081;BME280;20358;50.272;19.026;2023-04-03T14:08:06;98963.97;;;2.28;36.66
34081;BME280;20358;50.272;19.026;2023-04-03T14:11:16;98942.91;;;2.08;36.38
34081;BME280;20358;50.272;19.026;2023-04-03T14:14:30;98947.19;;;2.09;35.69
34081;BME280;20358;50.272;19.026;2023-04-03T14:17:39;98945.53;;;2.06;35.92
34081;BME280;20358;50.272;19.026;2023-04-03T14:20:48;98953.22;;;1.81;35.40
34081;BME280;20358;50.272;19.026;2023-04-03T14:23:56;98942.50;;;1.91;36.63
34081;BME280;20358;50.272;19.026;2023-04-03T14:27:02;98936.41;;;1.92;37.15
34081;BME280;20358;50.272;19.026;2023-04-03T14:30:14;98961.78;;;1.85;36.52
34081;BME280;20358;50.272;19.026;2023-04-03T14:33:23;98951.66;;;1.74;36.17
34081;BME280;20358;50.272;19.026;2023-04-03T14:36:34;98930.53;;;1.56;36.39
34081;BME280;20358;50.272;19.026;2023-04-03T14:39:41;98953.91;;;1.57;36.50
34081;BME280;20358;50.272;19.026;2023-04-03T14:42:49;98948.22;;;1.45;36.64
34081;BME280;20358;50.272;19.026;2023-04-03T14:45:57;98941.66;;;1.32;35.78
34081;BME280;20358;50.272;19.026;2023-04-03T14:49:13;98944.69;;;1.46;35.98
34081;BME280;20358;50.272;19.026;2023-04-03T14:52:25;98932.09;;;1.61;35.23
34081;BME280;20358;50.272;19.026;2023-04-03T14:55:34;98960.31;;;1.76;36.27
34081;BME280;20358;50.272;19.026;2023-04-03T14:58:40;98949.28;;;1.67;36.79
34081;BME280;20358;50.272;19.026;2023-04-03T15:01:47;98951.22;;;1.60;37.44
34081;BME280;20358;50.272;19.026;2023-04-03T15:04:53;98966.13;;;1.55;36.05
34081;BME280;20358;50.272;19.026;2023-04-03T15:08:03;98956.56;;;1.56;37.09
34081;BME280;20358;50.272;19.026;2023-04-03T15:11:10;98974.75;;;1.57;35.86
34081;BME280;20358;50.272;19.026;2023-04-03T15:14:17;98957.09;;;1.38;36.57
34081;BME280;20358;50.272;19.026;2023-04-03T15:17:39;98958.34;;;1.54;36.04
34081;BME280;20358;50.272;19.026;2023-04-03T15:20:47;98961.44;;;1.66;36.31
34081;BME280;20358;50.272;19.026;2023-04-03T15:23:56;98953.13;;;1.54;36.11
34081;BME280;20358;50.272;19.026;2023-04-03T15:27:04;98976.63;;;1.52;36.79
34081;BME280;20358;50.272;19.026;2023-04-03T15:30:14;98971.78;;;1.40;38.23
34081;BME280;20358;50.272;19.026;2023-04-03T15:33:22;98951.13;;;1.34;37.52
34081;BME280;20358;50.272;19.026;2023-04-03T15:36:28;98957.19;;;1.33;36.03
34081;BME280;20358;50.272;19.026;2023-04-03T15:39:39;98947.00;;;1.26;36.98
34081;BME280;20358;50.272;19.026;2023-04-03T15:42:45;98958.84;;;1.37;36.35
34081;BME280;20358;50.272;19.026;2023-04-03T15:45:56;98961.44;;;1.37;36.55
34081;BME280;20358;50.272;19.026;2023-04-03T15:49:04;98970.91;;;1.40;36.25
34081;BME280;20358;50.272;19.026;2023-04-03T15:52:11;98956.31;;;1.34;36.55
34081;BME280;20358;50.272;19.026;2023-04-03T15:55:20;98954.56;;;1.35;37.74
34081;BME280;20358;50.272;19.026;2023-04-03T15:58:27;98962.88;;;1.47;37.80
34081;BME280;20358;50.272;19.026;2023-04-03T16:01:33;98979.03;;;1.28;36.86
34081;BME280;20358;50.272;19.026;2023-04-03T16:04:41;98953.78;;;1.31;37.31
34081;BME280;20358;50.272;19.026;2023-04-03T16:07:47;98964.25;;;1.30;37.25
34081;BME280;20358;50.272;19.026;2023-04-03T16:10:57;98959.34;;;1.19;38.33
34081;BME280;20358;50.272;19.026;2023-04-03T16:14:03;98963.41;;;1.28;37.35
34081;BME280;20358;50.272;19.026;2023-04-03T16:17:10;98974.75;;;1.27;36.70
34081;BME280;20358;50.272;19.026;2023-04-03T16:20:16;98980.66;;;1.01;36.54
34081;BME280;20358;50.272;19.026;2023-04-03T16:23:25;98961.59;;;0.99;37.35
34081;BME280;20358;50.272;19.026;2023-04-03T16:26:34;98964.97;;;1.04;37.18
34081;BME280;20358;50.272;19.026;2023-04-03T16:29:41;98960.50;;;1.09;37.27
34081;BME280;20358;50.272;19.026;2023-04-03T16:32:47;98965.78;;;1.06;37.46
34081;BME280;20358;50.272;19.026;2023-04-03T16:35:54;98986.97;;;0.91;37.52
34081;BME280;20358;50.272;19.026;2023-04-03T16:39:00;98982.13;;;0.76;38.35
34081;BME280;20358;50.272;19.026;2023-04-03T16:42:10;98982.59;;;0.57;37.46
34081;BME280;20358;50.272;19.026;2023-04-03T16:45:16;98976.44;;;0.62;38.40
34081;BME280;20358;50.272;19.026;2023-04-03T16:48:23;98965.25;;;0.60;39.24
34081;BME280;20358;50.272;19.026;2023-04-03T16:51:29;98980.84;;;0.60;38.86